Time;durP1;ratioP1;P1;durP2;ratioP2;P2;SDS_P1;SDS_P2;PMS_P1;PMS_P2;Temp;Humidity;BMP_temperature;BMP_pressure;BME280_temperature;BME280_humidity;BME280_pressure;Samples;Min_cycle;Max_cycle;Signal;HPM_P1;HPM_P2
2021/06/22 00:00:23;;;;;;;18.87;17.20;;;15.60;99.90;;;;;;5132914;27;20466;-72
2021/06/22 00:02:50;;;;;;;17.80;16.40;;;15.50;99.90;;;;;;5144499;27;20449;-70
2021/06/22 00:05:19;;;;;;;18.30;17.00;;;15.40;99.90;;;;;;5138400;27;20479;-70
2021/06/22 00:07:46;;;;;;;19.20;17.43;;;15.30;99.90;;;;;;5134701;27;20514;-70
2021/06/22 00:10:14;;;;;;;18.67;17.10;;;15.40;99.90;;;;;;5141709;27;20867;-72
2021/06/22 00:12:41;;;;;;;19.17;17.40;;;15.40;99.90;;;;;;5139700;27;20543;-72
2021/06/22 00:15:13;;;;;;;18.17;16.70;;;15.30;99.90;;;;;;5138683;27;20463;-70
2021/06/22 00:17:40;;;;;;;18.53;17.13;;;15.40;99.90;;;;;;5136299;27;20464;-72
2021/06/22 00:20:09;;;;;;;18.10;16.90;;;15.40;99.90;;;;;;5139511;27;20498;-70
2021/06/22 00:22:37;;;;;;;20.43;18.30;;;15.40;99.90;;;;;;5146356;27;20801;-70
2021/06/22 00:25:04;;;;;;;20.57;18.57;;;15.50;99.90;;;;;;5147359;27;20981;-74
2021/06/22 00:27:31;;;;;;;20.30;18.50;;;15.40;99.90;;;;;;5141276;27;20498;-72
2021/06/22 00:29:58;;;;;;;21.53;19.43;;;15.40;99.90;;;;;;5141138;27;20999;-73
2021/06/22 00:32:27;;;;;;;21.27;19.47;;;15.40;99.90;;;;;;5140801;27;20554;-71
2021/06/22 00:34:54;;;;;;;21.10;19.17;;;15.30;99.90;;;;;;5144348;27;20455;-71
2021/06/22 00:37:20;;;;;;;21.10;19.30;;;15.30;99.90;;;;;;5145237;27;20830;-74
2021/06/22 00:39:48;;;;;;;20.80;18.77;;;15.30;99.90;;;;;;5141851;27;20456;-70
2021/06/22 00:42:15;;;;;;;20.60;18.87;;;15.40;99.90;;;;;;5141357;27;20459;-72
2021/06/22 00:44:46;;;;;;;19.47;17.93;;;15.40;99.90;;;;;;5141987;27;20460;-70
2021/06/22 00:47:13;;;;;;;19.30;17.80;;;15.40;99.90;;;;;;5140576;27;20491;-71
2021/06/22 00:49:42;;;;;;;19.57;17.90;;;15.30;99.90;;;;;;5142151;27;20464;-70
2021/06/22 00:52:09;;;;;;;21.90;19.73;;;15.30;99.90;;;;;;5140407;27;20702;-70
2021/06/22 00:54:36;;;;;;;23.20;21.07;;;15.30;99.90;;;;;;5137999;27;20704;-71
2021/06/22 00:57:06;;;;;;;21.60;19.90;;;15.10;99.90;;;;;;5141662;27;20877;-74
2021/06/22 00:59:33;;;;;;;22.20;20.30;;;15.10;99.90;;;;;;5143949;27;20464;-71
2021/06/22 01:02:02;;;;;;;21.53;19.73;;;15.10;99.90;;;;;;5142440;27;20464;-70
2021/06/22 01:04:30;;;;;;;22.43;20.27;;;15.20;99.90;;;;;;5141183;27;20458;-71
2021/06/22 01:07:00;;;;;;;23.10;20.90;;;15.20;99.90;;;;;;5143859;27;20455;-72
2021/06/22 01:09:28;;;;;;;21.90;19.87;;;15.20;99.90;;;;;;5140401;27;20460;-71
2021/06/22 01:11:56;;;;;;;23.23;21.30;;;15.20;99.90;;;;;;5137018;27;20529;-71
2021/06/22 01:14:23;;;;;;;21.40;19.80;;;15.20;99.90;;;;;;5141734;27;20855;-71
2021/06/22 01:16:49;;;;;;;22.03;20.13;;;15.20;99.90;;;;;;5140032;27;20470;-70
2021/06/22 01:19:17;;;;;;;22.87;20.70;;;15.20;99.90;;;;;;5139528;27;20479;-71
2021/06/22 01:21:46;;;;;;;21.30;19.60;;;15.10;99.90;;;;;;5142085;27;20998;-73
2021/06/22 01:24:15;;;;;;;23.60;21.07;;;15.00;99.90;;;;;;5137651;27;20451;-70
2021/06/22 01:26:47;;;;;;;20.87;18.97;;;15.10;99.90;;;;;;5141874;27;20579;-70
2021/06/22 01:29:15;;;;;;;20.37;18.67;;;15.10;99.90;;;;;;5138097;27;20483;-71
2021/06/22 01:31:42;;;;;;;19.43;17.70;;;15.10;99.90;;;;;;5149622;27;20725;-74
2021/06/22 01:34:10;;;;;;;20.43;18.80;;;15.10;99.90;;;;;;5136648;27;20691;-73
2021/06/22 01:36:38;;;;;;;29.70;18.83;;;15.00;99.90;;;;;;5140486;27;20456;-71
2021/06/22 01:39:13;;;;;;;21.37;19.70;;;15.10;99.90;;;;;;5133174;27;20498;-72
2021/06/22 01:41:40;;;;;;;20.83;18.97;;;15.10;99.90;;;;;;5136342;27;20537;-72
2021/06/22 01:44:08;;;;;;;19.17;17.77;;;15.00;99.90;;;;;;5144556;27;20459;-74
2021/06/22 01:46:35;;;;;;;22.70;20.70;;;15.00;99.90;;;;;;5136280;27;20464;-70
2021/06/22 01:49:02;;;;;;;21.53;19.63;;;15.00;99.90;;;;;;5138219;27;20518;-71
2021/06/22 01:51:29;;;;;;;23.83;21.83;;;15.00;99.90;;;;;;5139213;27;20989;-71
2021/06/22 01:53:57;;;;;;;23.87;21.67;;;14.90;99.90;;;;;;5143574;27;20471;-72
2021/06/22 01:56:28;;;;;;;21.53;19.73;;;14.90;99.90;;;;;;5133747;27;20459;-71
2021/06/22 01:58:55;;;;;;;22.40;20.53;;;14.80;99.90;;;;;;5139277;27;21000;-71
2021/06/22 02:01:22;;;;;;;23.17;21.20;;;14.80;99.90;;;;;;5137516;27;20513;-71
2021/06/22 02:03:50;;;;;;;22.37;20.57;;;14.80;99.90;;;;;;5140488;27;20443;-71
2021/06/22 02:06:17;;;;;;;25.27;23.07;;;14.90;99.90;;;;;;5139025;27;20509;-70
2021/06/22 02:08:44;;;;;;;22.53;20.90;;;14.80;99.90;;;;;;5140702;27;20487;-75
2021/06/22 02:11:11;;;;;;;23.20;21.30;;;14.90;99.90;;;;;;5133428;27;20451;-71
2021/06/22 02:13:39;;;;;;;22.13;20.23;;;14.80;99.90;;;;;;5138597;27;20461;-71
2021/06/22 02:16:06;;;;;;;21.43;19.70;;;14.80;99.90;;;;;;5140256;27;20886;-71
2021/06/22 02:18:33;;;;;;;20.17;18.57;;;14.90;99.90;;;;;;5143928;27;20768;-71
2021/06/22 02:21:03;;;;;;;19.10;17.53;;;14.80;99.90;;;;;;5131604;27;20460;-73
2021/06/22 02:23:30;;;;;;;18.50;17.40;;;14.50;99.90;;;;;;5140242;27;20459;-70
2021/06/22 02:25:57;;;;;;;18.80;17.30;;;14.40;99.90;;;;;;5137489;27;20470;-71
2021/06/22 02:28:24;;;;;;;18.50;17.10;;;14.40;99.90;;;;;;5134521;27;20480;-72
2021/06/22 02:30:56;;;;;;;17.97;16.63;;;14.50;99.90;;;;;;5136023;27;20448;-73
2021/06/22 02:33:23;;;;;;;17.80;16.50;;;14.30;99.90;;;;;;5140605;27;20494;-71
2021/06/22 02:35:50;;;;;;;17.47;16.23;;;14.30;99.90;;;;;;5139348;27;21119;-70
2021/06/22 02:38:17;;;;;;;18.30;16.53;;;14.30;99.90;;;;;;5142843;27;20911;-70
2021/06/22 02:40:45;;;;;;;18.37;16.97;;;14.20;99.90;;;;;;5136460;27;20456;-71
2021/06/22 02:43:13;;;;;;;17.40;16.17;;;14.30;99.90;;;;;;5130748;27;20459;-71
2021/06/22 02:45:40;;;;;;;17.73;16.00;;;14.20;99.90;;;;;;5140412;27;20867;-72
2021/06/22 02:48:10;;;;;;;18.77;17.30;;;14.20;99.90;;;;;;5141552;27;20914;-72
2021/06/22 02:50:39;;;;;;;17.30;15.80;;;14.10;99.90;;;;;;5139528;27;20503;-74
2021/06/22 02:53:07;;;;;;;18.47;16.87;;;14.00;99.90;;;;;;5136057;27;20512;-71
2021/06/22 02:55:34;;;;;;;18.20;16.90;;;13.90;99.90;;;;;;5131876;27;21029;-72
2021/06/22 02:58:02;;;;;;;18.73;16.80;;;13.80;99.90;;;;;;5134542;27;20516;-73
2021/06/22 03:00:30;;;;;;;18.27;16.70;;;13.90;99.90;;;;;;5132893;27;20455;-71
2021/06/22 03:02:58;;;;;;;18.07;16.50;;;13.90;99.90;;;;;;5142562;27;20456;-71
2021/06/22 03:05:27;;;;;;;18.67;17.27;;;13.90;99.90;;;;;;5140085;27;20450;-73
2021/06/22 03:07:54;;;;;;;18.80;17.40;;;13.90;99.90;;;;;;5138161;27;20562;-71
2021/06/22 03:10:24;;;;;;;19.63;17.63;;;13.80;99.90;;;;;;5138527;27;20451;-71
2021/06/22 03:12:52;;;;;;;19.47;17.73;;;13.70;99.90;;;;;;5144403;27;20906;-71
2021/06/22 03:15:20;;;;;;;19.27;17.50;;;13.80;99.90;;;;;;5138418;27;20993;-71
2021/06/22 03:17:48;;;;;;;19.50;17.80;;;13.80;99.90;;;;;;5139086;27;20456;-70
2021/06/22 03:20:15;;;;;;;19.50;17.70;;;13.90;99.90;;;;;;5145095;27;20485;-73
2021/06/22 03:22:44;;;;;;;20.07;18.07;;;13.90;99.90;;;;;;5140423;27;20463;-71
2021/06/22 03:25:12;;;;;;;19.63;17.97;;;13.90;99.90;;;;;;5138543;27;20463;-71
2021/06/22 03:27:40;;;;;;;18.83;17.33;;;13.70;99.90;;;;;;5140393;27;20549;-71
2021/06/22 03:30:10;;;;;;;19.13;16.83;;;13.70;99.90;;;;;;5144955;27;20474;-71
2021/06/22 03:32:38;;;;;;;22.13;17.80;;;13.70;99.90;;;;;;5140581;27;20459;-73
2021/06/22 03:35:06;;;;;;;20.80;18.80;;;13.60;99.90;;;;;;5138374;27;20460;-71
2021/06/22 03:37:34;;;;;;;19.70;18.00;;;13.60;99.90;;;;;;5143378;27;20804;-71
2021/06/22 03:40:06;;;;;;;19.50;18.10;;;13.60;99.90;;;;;;5141690;27;20466;-73
2021/06/22 03:42:33;;;;;;;20.17;18.40;;;13.60;99.90;;;;;;5145957;27;20945;-71
2021/06/22 03:45:00;;;;;;;22.53;18.13;;;13.60;99.90;;;;;;5148886;27;20473;-71
2021/06/22 03:47:27;;;;;;;19.93;17.67;;;13.60;99.90;;;;;;5133345;27;20460;-72
2021/06/22 03:49:54;;;;;;;20.13;18.13;;;13.60;99.90;;;;;;5138682;27;21071;-70
2021/06/22 03:52:22;;;;;;;19.40;18.00;;;13.50;99.90;;;;;;5142021;27;20462;-70
2021/06/22 03:54:48;;;;;;;20.87;18.57;;;13.60;99.90;;;;;;5137761;27;20483;-71
2021/06/22 03:57:17;;;;;;;23.17;18.17;;;13.70;99.90;;;;;;5142514;27;20462;-71
2021/06/22 03:59:43;;;;;;;19.97;17.83;;;13.60;99.90;;;;;;5141326;27;21249;-71
2021/06/22 04:02:10;;;;;;;25.27;18.80;;;13.60;99.90;;;;;;5138490;27;20463;-68
2021/06/22 04:04:37;;;;;;;19.87;17.90;;;13.70;99.90;;;;;;5142364;27;21037;-72
2021/06/22 04:07:05;;;;;;;18.53;16.87;;;13.60;99.90;;;;;;5135626;27;20804;-70
2021/06/22 04:09:31;;;;;;;20.43;18.57;;;13.60;99.90;;;;;;5138443;27;20515;-70
2021/06/22 04:11:58;;;;;;;21.63;18.70;;;13.60;99.90;;;;;;5139253;27;20965;-72
2021/06/22 04:14:27;;;;;;;20.27;18.70;;;13.70;99.90;;;;;;5138752;27;20873;-75
2021/06/22 04:16:54;;;;;;;20.17;18.13;;;13.80;99.90;;;;;;5136586;27;20538;-74
2021/06/22 04:19:21;;;;;;;20.70;18.60;;;13.90;99.90;;;;;;5137491;27;21013;-71
2021/06/22 04:21:48;;;;;;;19.83;17.90;;;14.00;99.90;;;;;;5142082;27;20460;-72
2021/06/22 04:24:15;;;;;;;20.03;18.43;;;13.90;99.90;;;;;;5145796;27;20468;-73
2021/06/22 04:26:41;;;;;;;20.33;18.47;;;13.90;99.90;;;;;;5136023;27;20492;-73
2021/06/22 04:29:08;;;;;;;21.10;18.90;;;13.80;99.90;;;;;;5132313;27;20495;-72
2021/06/22 04:31:37;;;;;;;21.17;19.13;;;13.90;99.90;;;;;;5137195;27;20455;-75
2021/06/22 04:34:04;;;;;;;20.30;18.73;;;14.00;99.90;;;;;;5134688;27;20466;-72
2021/06/22 04:36:31;;;;;;;22.67;20.30;;;14.00;99.90;;;;;;5145227;27;20518;-69
2021/06/22 04:38:58;;;;;;;22.50;19.77;;;14.00;99.90;;;;;;5137527;27;20463;-71
2021/06/22 04:41:24;;;;;;;22.43;20.20;;;14.00;99.90;;;;;;5140802;27;20464;-71
2021/06/22 04:43:51;;;;;;;21.17;19.10;;;14.10;99.90;;;;;;5137675;27;20459;-71
2021/06/22 04:46:19;;;;;;;21.30;18.70;;;14.20;99.90;;;;;;5134093;27;20791;-71
2021/06/22 04:48:47;;;;;;;22.47;20.23;;;14.00;99.90;;;;;;5142393;27;20506;-71
2021/06/22 04:51:14;;;;;;;23.23;20.77;;;14.10;99.90;;;;;;5136084;27;21198;-71
2021/06/22 04:53:41;;;;;;;21.67;19.10;;;14.20;99.90;;;;;;5140944;27;20459;-75
2021/06/22 04:56:07;;;;;;;26.13;21.50;;;14.30;99.90;;;;;;5138669;27;20483;-71
2021/06/22 04:58:35;;;;;;;32.30;22.90;;;14.40;99.90;;;;;;5135924;27;20471;-74
2021/06/22 05:01:04;;;;;;;24.50;22.23;;;14.30;99.90;;;;;;5133640;27;20463;-72
2021/06/22 05:03:32;;;;;;;24.07;21.87;;;14.40;99.90;;;;;;5138946;27;20788;-71
2021/06/22 05:06:01;;;;;;;25.43;23.13;;;14.60;99.90;;;;;;5132681;27;20460;-71
2021/06/22 05:08:27;;;;;;;26.60;24.00;;;14.50;99.90;;;;;;5138379;27;20483;-71
2021/06/22 05:10:55;;;;;;;27.27;23.67;;;14.60;99.90;;;;;;5140656;27;20455;-71
2021/06/22 05:13:23;;;;;;;26.50;24.00;;;14.60;99.90;;;;;;5141174;27;20452;-73
2021/06/22 05:15:50;;;;;;;56.60;26.27;;;14.50;99.90;;;;;;5133350;27;20457;-71
2021/06/22 05:18:17;;;;;;;30.70;24.93;;;14.50;99.90;;;;;;5138584;27;20824;-71
2021/06/22 05:20:43;;;;;;;26.10;23.67;;;14.60;99.90;;;;;;5141926;27;21140;-71
2021/06/22 05:23:12;;;;;;;26.60;23.87;;;14.40;99.90;;;;;;5143839;27;20463;-71
2021/06/22 05:25:41;;;;;;;27.43;24.63;;;14.50;99.90;;;;;;5145540;27;20452;-75
2021/06/22 05:28:09;;;;;;;27.50;25.03;;;14.60;99.90;;;;;;5141360;27;20563;-71
2021/06/22 05:30:35;;;;;;;25.87;23.67;;;14.60;99.90;;;;;;5137258;27;20548;-71
2021/06/22 05:33:02;;;;;;;26.83;24.40;;;14.60;99.90;;;;;;5138654;27;20459;-72
2021/06/22 05:35:29;;;;;;;27.70;25.00;;;14.70;99.90;;;;;;5135176;27;20995;-69
2021/06/22 05:37:57;;;;;;;26.73;23.90;;;14.90;99.90;;;;;;5141169;27;20464;-71
2021/06/22 05:40:25;;;;;;;27.67;25.13;;;14.80;99.90;;;;;;5139038;27;20451;-73
2021/06/22 05:42:52;;;;;;;27.40;24.90;;;14.80;99.90;;;;;;5132657;27;20471;-71
2021/06/22 05:45:20;;;;;;;28.10;25.27;;;14.80;99.90;;;;;;5141669;27;20464;-71
2021/06/22 05:47:47;;;;;;;27.37;24.80;;;14.80;99.90;;;;;;5135775;27;20887;-71
2021/06/22 05:50:14;;;;;;;25.40;23.47;;;14.80;99.90;;;;;;5136426;27;20487;-75
2021/06/22 05:52:42;;;;;;;26.57;24.50;;;14.80;99.90;;;;;;5135786;27;20464;-72
2021/06/22 05:55:17;;;;;;;27.10;24.70;;;14.90;99.90;;;;;;5135648;27;21088;-71
2021/06/22 05:57:47;;;;;;;28.63;25.67;;;15.10;99.90;;;;;;5135937;27;21012;-71
2021/06/22 06:00:15;;;;;;;27.93;24.63;;;15.10;99.90;;;;;;5133360;27;20456;-75
2021/06/22 06:02:43;;;;;;;29.13;26.20;;;14.90;99.90;;;;;;5130342;27;20799;-71
2021/06/22 06:05:12;;;;;;;27.70;25.10;;;14.90;99.90;;;;;;5139919;27;20451;-71
2021/06/22 06:07:39;;;;;;;27.63;25.13;;;14.80;99.90;;;;;;5139370;27;20447;-71
2021/06/22 06:10:08;;;;;;;29.00;26.30;;;14.90;99.90;;;;;;5138917;27;20519;-74
2021/06/22 06:12:35;;;;;;;26.30;23.93;;;15.10;99.90;;;;;;5143453;27;20454;-71
2021/06/22 06:15:05;;;;;;;27.27;25.13;;;15.30;99.90;;;;;;5138325;27;20460;-71
2021/06/22 06:17:32;;;;;;;27.10;24.90;;;15.40;99.90;;;;;;5133126;27;20452;-71
2021/06/22 06:19:59;;;;;;;27.50;24.83;;;15.60;99.90;;;;;;5143447;27;20490;-71
2021/06/22 06:22:26;;;;;;;28.00;25.23;;;15.70;99.90;;;;;;5140845;27;20458;-72
2021/06/22 06:24:55;;;;;;;27.77;24.83;;;15.70;99.90;;;;;;5132843;27;20850;-73
2021/06/22 06:27:24;;;;;;;26.10;23.93;;;15.90;99.90;;;;;;5138383;27;20455;-71
2021/06/22 06:29:55;;;;;;;26.93;24.30;;;15.70;99.90;;;;;;5135167;27;20487;-73
2021/06/22 06:32:23;;;;;;;25.93;23.70;;;15.60;99.90;;;;;;5130664;27;20470;-71
2021/06/22 06:34:50;;;;;;;26.63;24.40;;;15.40;99.90;;;;;;5135699;27;20853;-72
2021/06/22 06:37:17;;;;;;;25.23;23.43;;;15.30;99.90;;;;;;5127221;27;21008;-72
2021/06/22 06:39:45;;;;;;;26.37;24.03;;;15.50;99.90;;;;;;5128443;27;20530;-71
2021/06/22 06:42:12;;;;;;;23.57;21.67;;;15.60;99.90;;;;;;5141412;27;20452;-71
2021/06/22 06:44:39;;;;;;;23.63;21.70;;;15.70;99.90;;;;;;5136942;27;20464;-72
2021/06/22 06:47:06;;;;;;;23.10;21.27;;;15.60;99.90;;;;;;5141209;27;20478;-71
2021/06/22 06:49:35;;;;;;;23.33;21.40;;;15.70;99.90;;;;;;5134886;27;20488;-71
2021/06/22 06:52:03;;;;;;;21.03;19.10;;;15.70;99.90;;;;;;5140191;27;20474;-72
2021/06/22 06:54:30;;;;;;;21.63;19.50;;;15.80;99.90;;;;;;5140118;27;20496;-72
2021/06/22 06:56:58;;;;;;;21.00;19.33;;;15.60;99.90;;;;;;5139663;27;20946;-73
2021/06/22 06:59:25;;;;;;;21.63;19.90;;;15.60;99.90;;;;;;5135925;27;20541;-71
2021/06/22 07:01:52;;;;;;;20.13;18.47;;;15.50;99.90;;;;;;5136988;27;20820;-71
2021/06/22 07:04:20;;;;;;;20.93;19.30;;;15.30;99.90;;;;;;5135814;27;20462;-72
2021/06/22 07:06:48;;;;;;;21.77;20.20;;;15.50;99.90;;;;;;5137426;27;20784;-71
2021/06/22 07:09:15;;;;;;;21.60;19.60;;;15.40;99.90;;;;;;5138437;27;21015;-71
2021/06/22 07:11:43;;;;;;;21.10;18.63;;;15.20;99.90;;;;;;5139195;27;20462;-71
2021/06/22 07:14:14;;;;;;;19.70;18.10;;;15.30;99.90;;;;;;5137829;27;20454;-70
2021/06/22 07:16:41;;;;;;;20.20;18.27;;;15.50;99.90;;;;;;5133129;27;20461;-70
2021/06/22 07:19:09;;;;;;;21.07;19.53;;;15.40;99.90;;;;;;5137935;27;20475;-71
2021/06/22 07:21:36;;;;;;;23.47;21.33;;;15.50;99.90;;;;;;5139526;27;20770;-72
2021/06/22 07:24:06;;;;;;;25.13;22.83;;;15.50;99.90;;;;;;5136143;27;20491;-70
2021/06/22 07:26:34;;;;;;;28.13;25.10;;;15.40;99.90;;;;;;5131965;27;20463;-69
2021/06/22 07:29:01;;;;;;;25.83;23.83;;;15.40;99.90;;;;;;5142450;27;20451;-70
2021/06/22 07:31:28;;;;;;;26.53;24.17;;;15.30;99.90;;;;;;5143223;27;20537;-70
2021/06/22 07:33:55;;;;;;;26.90;24.30;;;15.40;99.90;;;;;;5138943;27;20470;-73
2021/06/22 07:36:22;;;;;;;25.53;23.30;;;15.40;99.90;;;;;;5136911;27;20463;-72
2021/06/22 07:38:49;;;;;;;26.33;23.47;;;15.40;99.90;;;;;;5134364;27;20453;-71
2021/06/22 07:41:18;;;;;;;24.93;22.83;;;15.40;99.90;;;;;;5123877;27;20464;-70
2021/06/22 07:43:45;;;;;;;23.40;21.47;;;15.70;99.90;;;;;;5126682;27;20459;-73
2021/06/22 07:46:12;;;;;;;23.60;21.10;;;15.70;99.90;;;;;;5136859;27;20491;-71
2021/06/22 07:48:38;;;;;;;22.23;20.20;;;15.90;99.90;;;;;;5130348;27;20476;-73
2021/06/22 07:51:06;;;;;;;23.73;18.50;;;16.00;99.90;;;;;;5137631;27;20586;-69
2021/06/22 07:53:33;;;;;;;18.70;17.50;;;16.10;99.90;;;;;;5136181;27;20528;-72
2021/06/22 07:56:00;;;;;;;19.03;17.43;;;16.10;99.90;;;;;;5130673;27;20482;-71
2021/06/22 07:58:28;;;;;;;21.37;17.70;;;16.30;99.90;;;;;;5131547;27;20500;-70
2021/06/22 08:00:55;;;;;;;20.67;18.80;;;16.60;99.90;;;;;;5131102;27;20464;-72
2021/06/22 08:03:23;;;;;;;18.90;17.30;;;16.70;99.90;;;;;;5133764;27;20505;-70
2021/06/22 08:05:52;;;;;;;18.90;17.40;;;16.80;99.90;;;;;;5136473;27;20451;-71
2021/06/22 08:08:20;;;;;;;19.50;17.80;;;17.10;99.90;;;;;;5135367;27;20460;-71
2021/06/22 08:10:48;;;;;;;18.80;17.40;;;17.40;99.90;;;;;;5137004;27;20519;-71
2021/06/22 08:13:15;;;;;;;19.20;17.60;;;17.50;99.90;;;;;;5129756;27;20463;-72
2021/06/22 08:15:44;;;;;;;18.67;17.30;;;17.30;99.90;;;;;;5141098;27;20455;-71
2021/06/22 08:18:11;;;;;;;17.87;16.67;;;17.20;99.90;;;;;;5139755;27;20969;-71
2021/06/22 08:20:40;;;;;;;19.07;17.67;;;17.40;99.90;;;;;;5129125;27;20491;-73
2021/06/22 08:23:08;;;;;;;18.50;17.10;;;18.30;99.90;;;;;;5132179;27;20968;-72
2021/06/22 08:25:35;;;;;;;17.73;16.43;;;19.20;99.90;;;;;;5129231;27;20463;-73
2021/06/22 08:28:02;;;;;;;18.67;17.33;;;19.50;99.90;;;;;;5137876;27;20908;-75
2021/06/22 08:30:29;;;;;;;18.30;17.10;;;20.30;99.90;;;;;;5139637;27;20497;-74
2021/06/22 08:32:58;;;;;;;18.47;17.10;;;20.30;99.90;;;;;;5131411;27;20568;-71
2021/06/22 08:35:25;;;;;;;17.97;16.63;;;20.90;99.90;;;;;;5133566;27;20932;-73
2021/06/22 08:37:52;;;;;;;19.17;17.93;;;20.90;99.90;;;;;;5136577;27;20460;-71
2021/06/22 08:40:19;;;;;;;18.20;16.80;;;21.00;99.90;;;;;;5138820;27;20463;-71
2021/06/22 08:42:46;;;;;;;18.87;17.43;;;20.40;99.90;;;;;;5128467;27;20466;-71
2021/06/22 08:45:15;;;;;;;19.23;17.83;;;19.60;99.90;;;;;;5132190;27;20483;-71
2021/06/22 08:47:43;;;;;;;18.30;16.57;;;19.50;99.90;;;;;;5127896;27;20463;-71
2021/06/22 08:50:13;;;;;;;19.77;18.37;;;19.60;99.90;;;;;;5135923;27;21009;-70
2021/06/22 08:52:42;;;;;;;18.40;17.10;;;19.40;99.90;;;;;;5134069;27;20453;-71
2021/06/22 08:55:25;;;;;;;19.50;18.13;;;19.80;99.90;;;;;;5135428;27;20988;-71
2021/06/22 08:57:53;;;;;;;19.20;17.90;;;19.40;99.90;;;;;;5118476;27;20473;-72
2021/06/22 09:00:20;;;;;;;18.23;17.03;;;19.60;99.90;;;;;;5135512;27;20865;-71
2021/06/22 09:02:58;;;;;;;17.80;16.77;;;19.50;99.90;;;;;;5132630;27;20456;-70
2021/06/22 09:05:27;;;;;;;18.53;17.30;;;20.50;99.90;;;;;;5134444;27;20471;-71
2021/06/22 09:07:54;;;;;;;18.87;17.37;;;20.00;99.90;;;;;;5130786;27;20456;-71
2021/06/22 09:10:26;;;;;;;18.27;17.07;;;19.80;99.90;;;;;;5129900;27;20519;-70
2021/06/22 09:12:55;;;;;;;18.83;17.60;;;19.60;99.90;;;;;;5134373;27;20468;-70
2021/06/22 09:15:26;;;;;;;17.90;16.70;;;19.70;99.90;;;;;;5136512;27;21030;-70
2021/06/22 09:17:53;;;;;;;18.90;17.30;;;19.70;99.90;;;;;;5136538;27;20455;-70
2021/06/22 09:20:39;;;;;;;18.40;17.03;;;19.80;99.90;;;;;;5133584;27;20479;-71
2021/06/22 09:23:12;;;;;;;18.37;17.07;;;20.10;99.90;;;;;;5125844;27;20456;-72
2021/06/22 09:25:40;;;;;;;18.87;17.40;;;19.60;99.90;;;;;;5138067;27;21003;-73
2021/06/22 09:28:07;;;;;;;19.07;17.70;;;19.70;99.90;;;;;;5131717;27;20461;-73
2021/06/22 09:30:53;;;;;;;18.30;17.00;;;20.40;99.90;;;;;;5132835;27;20574;-70
2021/06/22 09:33:30;;;;;;;18.97;17.60;;;20.60;99.90;;;;;;5129515;27;20555;-74
2021/06/22 09:36:02;;;;;;;18.40;17.10;;;20.90;99.90;;;;;;5126972;27;20456;-70
2021/06/22 09:38:31;;;;;;;17.80;16.60;;;20.70;99.90;;;;;;5133294;27;20460;-70
2021/06/22 09:41:06;;;;;;;17.90;16.70;;;21.00;99.90;;;;;;5131962;27;20451;-70
2021/06/22 09:43:40;;;;;;;18.17;16.87;;;20.70;99.90;;;;;;5132690;27;20955;-73
2021/06/22 09:46:07;;;;;;;16.93;15.73;;;20.50;99.90;;;;;;5134980;27;20468;-71
2021/06/22 09:48:45;;;;;;;18.33;16.97;;;20.60;99.90;;;;;;5125919;27;20831;-70
2021/06/22 09:51:14;;;;;;;17.60;16.40;;;21.10;99.90;;;;;;5140968;27;20486;-73
2021/06/22 09:53:41;;;;;;;17.70;16.60;;;21.10;99.90;;;;;;5132699;27;20497;-75
2021/06/22 09:56:21;;;;;;;18.40;17.07;;;21.10;99.90;;;;;;5131454;27;20895;-73
2021/06/22 09:58:48;;;;;;;20.57;17.90;;;20.90;99.90;;;;;;5130127;27;20962;-72
2021/06/22 10:01:35;;;;;;;19.27;17.87;;;21.20;99.90;;;;;;5137537;27;20471;-72
2021/06/22 10:04:17;;;;;;;20.73;18.70;;;21.00;99.90;;;;;;5136406;27;20540;-72
2021/06/22 10:06:52;;;;;;;19.17;17.97;;;20.90;99.90;;;;;;5131048;27;20456;-72
2021/06/22 10:09:24;;;;;;;19.70;18.23;;;20.80;99.90;;;;;;5138870;27;20822;-71
2021/06/22 10:12:00;;;;;;;20.33;18.73;;;20.80;99.90;;;;;;5133189;27;20520;-71
2021/06/22 10:14:29;;;;;;;19.53;18.23;;;20.60;99.90;;;;;;5131722;27;20893;-71
2021/06/22 10:16:58;;;;;;;20.30;18.90;;;20.10;99.90;;;;;;5132131;27;20567;-71
2021/06/22 10:19:26;;;;;;;21.53;19.93;;;19.70;99.90;;;;;;5137931;27;21004;-71
2021/06/22 10:21:56;;;;;;;19.03;17.77;;;19.90;99.90;;;;;;5129832;27;20498;-71
2021/06/22 10:24:24;;;;;;;20.13;18.57;;;20.40;99.90;;;;;;5124689;27;20826;-73
2021/06/22 10:26:52;;;;;;;20.23;18.77;;;20.80;99.90;;;;;;5127982;27;20463;-71
2021/06/22 10:29:22;;;;;;;19.90;18.40;;;20.90;99.90;;;;;;5126150;27;20562;-71
2021/06/22 10:31:51;;;;;;;19.10;17.80;;;20.90;99.90;;;;;;5135836;27;20518;-71
2021/06/22 10:34:19;;;;;;;19.80;17.87;;;21.40;99.90;;;;;;5138605;27;20463;-72
2021/06/22 10:36:51;;;;;;;19.73;18.43;;;21.30;99.90;;;;;;5139057;27;20455;-70
2021/06/22 10:39:23;;;;;;;19.50;17.77;;;21.50;99.90;;;;;;5127859;27;20460;-69
2021/06/22 10:41:50;;;;;;;20.67;19.03;;;21.30;99.90;;;;;;5135678;27;20821;-71
2021/06/22 10:44:40;;;;;;;18.47;17.03;;;21.00;99.90;;;;;;5130689;27;20465;-70
2021/06/22 10:47:29;;;;;;;18.87;17.47;;;20.60;99.90;;;;;;5131586;27;20820;-70
2021/06/22 10:50:00;;;;;;;20.23;18.30;;;20.20;99.90;;;;;;5130878;27;20458;-70
2021/06/22 10:52:57;;;;;;;20.37;18.87;;;20.20;99.90;;;;;;5137583;27;20464;-72
2021/06/22 10:56:03;;;;;;;19.63;18.10;;;19.70;99.90;;;;;;5131047;27;21147;-69
2021/06/22 10:58:31;;;;;;;19.90;18.40;;;19.90;99.90;;;;;;5127429;27;20471;-70
2021/06/22 11:01:17;;;;;;;20.13;18.73;;;20.00;99.90;;;;;;5139403;27;20957;-71
2021/06/22 11:03:44;;;;;;;20.30;18.80;;;19.70;99.90;;;;;;5133152;27;20462;-70
2021/06/22 11:06:29;;;;;;;20.20;18.77;;;19.60;99.90;;;;;;5126265;27;20452;-70
2021/06/22 11:09:15;;;;;;;19.63;18.37;;;19.60;99.90;;;;;;5131261;27;20546;-70
2021/06/22 11:11:42;;;;;;;20.43;18.40;;;19.50;99.90;;;;;;5132749;27;20846;-69
2021/06/22 11:14:12;;;;;;;20.37;18.90;;;19.50;99.90;;;;;;5128953;27;21000;-70
2021/06/22 11:16:39;;;;;;;20.00;18.70;;;19.60;99.90;;;;;;5131484;27;20455;-69
2021/06/22 11:19:14;;;;;;;21.43;19.37;;;19.80;99.90;;;;;;5131117;27;20483;-70
2021/06/22 11:21:55;;;;;;;19.50;18.00;;;19.90;99.90;;;;;;5126941;27;20472;-69
2021/06/22 11:24:31;;;;;;;18.60;17.47;;;20.00;99.90;;;;;;5134647;27;20458;-69
2021/06/22 11:27:05;;;;;;;20.57;19.07;;;19.90;99.90;;;;;;5136879;27;20880;-69
2021/06/22 11:29:50;;;;;;;20.07;18.27;;;20.10;99.90;;;;;;5134747;27;20973;-69
2021/06/22 11:32:36;;;;;;;19.90;18.60;;;20.00;99.90;;;;;;5137918;27;20912;-70
2021/06/22 11:35:05;;;;;;;21.60;19.70;;;20.00;99.90;;;;;;5137330;27;20455;-71
2021/06/22 11:37:32;;;;;;;20.30;18.83;;;19.80;99.90;;;;;;5136363;27;20466;-69
2021/06/22 11:40:01;;;;;;;20.80;18.67;;;19.80;99.90;;;;;;5133715;27;20471;-69
2021/06/22 11:42:28;;;;;;;20.70;18.70;;;19.70;99.90;;;;;;5130357;27;20543;-69
2021/06/22 11:45:17;;;;;;;19.77;18.33;;;19.60;99.90;;;;;;5140526;27;20469;-69
2021/06/22 11:47:56;;;;;;;20.23;18.83;;;19.50;99.90;;;;;;5135509;27;20956;-69
2021/06/22 11:50:32;;;;;;;19.87;18.23;;;19.00;99.90;;;;;;5137695;27;20885;-71
2021/06/22 11:53:01;;;;;;;19.00;17.80;;;18.90;99.90;;;;;;5127365;27;20513;-69
2021/06/22 11:55:28;;;;;;;19.97;18.33;;;18.80;99.90;;;;;;5126022;27;20499;-70
2021/06/22 11:57:56;;;;;;;21.07;17.27;;;19.10;99.90;;;;;;5128333;27;20795;-71
2021/06/22 12:00:28;;;;;;;19.07;17.47;;;19.40;99.90;;;;;;5128186;27;20455;-68
2021/06/22 12:02:56;;;;;;;18.60;17.30;;;19.30;99.90;;;;;;5135884;27;20460;-69
2021/06/22 12:05:24;;;;;;;18.93;17.60;;;19.50;99.90;;;;;;5136991;27;20474;-69
2021/06/22 12:07:54;;;;;;;19.20;17.73;;;19.30;99.90;;;;;;5134094;27;20460;-69
2021/06/22 12:10:22;;;;;;;19.63;18.20;;;19.30;99.90;;;;;;5132441;27;20456;-71
2021/06/22 12:12:51;;;;;;;20.53;18.70;;;19.20;99.90;;;;;;5141460;27;20944;-68
2021/06/22 12:15:31;;;;;;;23.40;21.57;;;19.10;99.90;;;;;;5138586;27;20459;-69
2021/06/22 12:17:58;;;;;;;22.73;20.87;;;18.90;99.90;;;;;;5133591;27;20463;-69
2021/06/22 12:20:27;;;;;;;20.73;19.23;;;18.90;99.90;;;;;;5134049;27;20595;-69
2021/06/22 12:23:06;;;;;;;19.37;18.23;;;18.70;99.90;;;;;;5133200;27;20471;-69
2021/06/22 12:25:39;;;;;;;21.33;18.17;;;18.80;99.90;;;;;;5137011;27;20470;-69
2021/06/22 12:28:06;;;;;;;20.33;18.77;;;18.60;99.90;;;;;;5141154;27;20470;-69
2021/06/22 12:30:36;;;;;;;20.07;18.47;;;18.80;99.90;;;;;;5141581;27;20527;-70
2021/06/22 12:33:12;;;;;;;20.83;19.07;;;19.00;99.90;;;;;;5136639;27;20459;-68
2021/06/22 12:35:39;;;;;;;19.93;18.70;;;19.00;99.90;;;;;;5135103;27;20491;-69
2021/06/22 12:38:08;;;;;;;21.30;19.20;;;19.30;99.90;;;;;;5137927;27;20466;-69